地図

経路データ

SID SEASON NUMBER BASIN SUBBASIN NAME ISO_TIME NATURE LAT LON WMO_WIND WMO_PRES WMO_AGENCY TRACK_TYPE DIST2LAND LANDFALL IFLAG USA_AGENCY USA_ATCF_ID USA_LAT USA_LON USA_RECORD USA_STATUS USA_WIND USA_PRES USA_SSHS USA_R34_NE USA_R34_SE USA_R34_SW USA_R34_NW USA_R50_NE USA_R50_SE USA_R50_SW USA_R50_NW USA_R64_NE USA_R64_SE USA_R64_SW USA_R64_NW USA_POCI USA_ROCI USA_RMW USA_EYE TOKYO_LAT TOKYO_LON TOKYO_GRADE TOKYO_WIND TOKYO_PRES TOKYO_R50_DIR TOKYO_R50_LONG TOKYO_R50_SHORT TOKYO_R30_DIR TOKYO_R30_LONG TOKYO_R30_SHORT TOKYO_LAND CMA_LAT CMA_LON CMA_CAT CMA_WIND CMA_PRES HKO_LAT HKO_LON HKO_CAT HKO_WIND HKO_PRES NEWDELHI_LAT NEWDELHI_LON NEWDELHI_GRADE NEWDELHI_WIND NEWDELHI_PRES NEWDELHI_CI NEWDELHI_DP NEWDELHI_POCI REUNION_LAT REUNION_LON REUNION_TYPE REUNION_WIND REUNION_PRES REUNION_TNUM REUNION_CI REUNION_RMW REUNION_R34_NE REUNION_R34_SE REUNION_R34_SW REUNION_R34_NW REUNION_R50_NE REUNION_R50_SE REUNION_R50_SW REUNION_R50_NW REUNION_R64_NE REUNION_R64_SE REUNION_R64_SW REUNION_R64_NW BOM_LAT BOM_LON BOM_TYPE BOM_WIND BOM_PRES BOM_TNUM BOM_CI BOM_RMW BOM_R34_NE BOM_R34_SE BOM_R34_SW BOM_R34_NW BOM_R50_NE BOM_R50_SE BOM_R50_SW BOM_R50_NW BOM_R64_NE BOM_R64_SE BOM_R64_SW BOM_R64_NW BOM_ROCI BOM_POCI BOM_EYE BOM_POS_METHOD BOM_PRES_METHOD NADI_LAT NADI_LON NADI_CAT NADI_WIND NADI_PRES WELLINGTON_LAT WELLINGTON_LON WELLINGTON_WIND WELLINGTON_PRES DS824_LAT DS824_LON DS824_STAGE DS824_WIND DS824_PRES TD9636_LAT TD9636_LON TD9636_STAGE TD9636_WIND TD9636_PRES TD9635_LAT TD9635_LON TD9635_WIND TD9635_PRES TD9635_ROCI NEUMANN_LAT NEUMANN_LON NEUMANN_CLASS NEUMANN_WIND NEUMANN_PRES MLC_LAT MLC_LON MLC_CLASS MLC_WIND MLC_PRES USA_GUST BOM_GUST BOM_GUST_PER REUNION_GUST REUNION_GUST_PER USA_SEAHGT USA_SEARAD_NE USA_SEARAD_SE USA_SEARAD_SW USA_SEARAD_NW STORM_SPEED STORM_DIR
1950022S16161 1950 5 SP MM NOT_NAMED 1950-01-22 00:00:00 TS -16.0000 161.200 main 561 545 O________OO___ jtwc_sh SH061950 -16.0000 161.200 -1 -16.0000 161.200 TC -16.0000 161.200 2 4 135
1950022S16161 1950 5 SP MM NOT_NAMED 1950-01-22 03:00:00 TS -16.1515 161.352 main 530 515 P________PP___ SH061950 -16.1475 161.360 -1 -16.1475 161.360 TC -16.1595 161.336 2 4 138
1950022S16161 1950 5 SP MM NOT_NAMED 1950-01-22 06:00:00 TS -16.3050 161.489 main 515 490 O________OP___ jtwc_sh SH061950 -16.3000 161.500 -1 -16.3000 161.500 TC -16.3151 161.467 2 4 142
1950022S16161 1950 5 SP MM NOT_NAMED 1950-01-22 09:00:00 TS -16.4594 161.602 main 490 475 P________PP___ SH061950 -16.4575 161.608 -1 -16.4575 161.608 TC -16.4632 161.590 2 4 145
1950022S16161 1950 5 SP MM NOT_NAMED 1950-01-22 12:00:00 TS -16.6000 161.700 main 475 460 O________OO___ jtwc_sh SH061950 -16.6000 161.700 -1 -16.6000 161.700 TC -16.6000 161.700 2 3 143
1950022S16161 1950 5 SP MM NOT_NAMED 1950-01-22 15:00:00 TS -16.7125 161.803 main 460 445 P________PP___ SH061950 -16.7075 161.808 -1 -16.7075 161.808 TC -16.7225 161.794 2 3 139
1950022S16161 1950 5 SP MM NOT_NAMED 1950-01-22 18:00:00 TS -16.8100 161.891 main 445 435 O________OP___ jtwc_sh SH061950 -16.8000 161.900 -1 -16.8000 161.900 TC -16.8300 161.873 2 2 144
1950022S16161 1950 5 SP MM NOT_NAMED 1950-01-22 21:00:00 TS -16.9125 161.952 main 430 420 P________PP___ SH061950 -16.9075 161.958 -1 -16.9075 161.958 TC -16.9225 161.940 2 2 151
1950022S16161 1950 5 SP MM NOT_NAMED 1950-01-23 00:00:00 TS -17.0000 162.000 main 420 411 O________OO___ jtwc_sh SH061950 -17.0000 162.000 -1 -17.0000 162.000 TC -17.0000 162.000 2 2 146
1950022S16161 1950 5 SP MM NOT_NAMED 1950-01-23 03:00:00 TS -17.0584 162.052 main 405 405 P________PP___ SH061950 -17.0575 162.050 -1 -17.0575 162.050 TC -17.0603 162.057 2 1 136
1950022S16161 1950 5 SP MM NOT_NAMED 1950-01-23 06:00:00 TS -17.1025 162.103 main 405 405 O________OP___ jtwc_sh SH061950 -17.1000 162.100 -1 -17.1000 162.100 TC -17.1075 162.108 2 1 134
1950022S16161 1950 5 SP MM NOT_NAMED 1950-01-23 09:00:00 TS -17.1503 162.151 main 390 390 P________PP___ SH061950 -17.1500 162.150 -1 -17.1500 162.150 TC -17.1509 162.154 2 1 135
1950022S16161 1950 5 SP MM NOT_NAMED 1950-01-23 12:00:00 TS -17.2000 162.200 main 390 390 O________OO___ jtwc_sh SH061950 -17.2000 162.200 -1 -17.2000 162.200 TC -17.2000 162.200 2 1 134
1950022S16161 1950 5 SP MM NOT_NAMED 1950-01-23 15:00:00 TS -17.2374 162.242 main 390 375 P________PP___ SH061950 -17.2425 162.250 -1 -17.2425 162.250 TC -17.2271 162.226 2 1 139
1950022S16161 1950 5 SP MM NOT_NAMED 1950-01-23 18:00:00 TS -17.2891 162.285 main 375 366 O________OP___ jtwc_sh SH061950 -17.3000 162.300 -1 -17.3000 162.300 TC -17.2674 162.256 2 1 148
1950022S16161 1950 5 SP MM NOT_NAMED 1950-01-23 21:00:00 TS -17.3580 162.326 main 366 351 P________PP___ SH061950 -17.3625 162.335 -1 -17.3625 162.335 TC -17.3489 162.307 2 2 153
1950022S16161 1950 5 SP MM NOT_NAMED 1950-01-24 00:00:00 TS -17.5000 162.400 main 351 326 O________OO___ jtwc_sh SH061950 -17.5000 162.400 -1 -17.5000 162.400 TC -17.5000 162.400 2 5 154
1950022S16161 1950 5 SP MM NOT_NAMED 1950-01-24 03:00:00 TS -17.7648 162.529 main 316 277 P________PP___ SH061950 -17.7625 162.520 -1 -17.7625 162.520 TC -17.7694 162.548 2 7 154
1950022S16161 1950 5 SP MM NOT_NAMED 1950-01-24 06:00:00 TS -18.1017 162.713 main 277 237 O________OP___ jtwc_sh SH061950 -18.1000 162.700 -1 -18.1000 162.700 TC -18.1050 162.740 2 8 151
1950022S16161 1950 5 SP MM NOT_NAMED 1950-01-24 09:00:00 TS -18.4644 162.944 main 228 182 P________PP___ SH061950 -18.4650 162.935 -1 -18.4650 162.935 TC -18.4631 162.961 2 8 146
1950022S16161 1950 5 SP MM NOT_NAMED 1950-01-24 12:00:00 TS -18.8000 163.200 main 182 152 O________OO___ jtwc_sh SH061950 -18.8000 163.200 -1 -18.8000 163.200 TC -18.8000 163.200 2 7 140
1950022S16161 1950 5 SP MM NOT_NAMED 1950-01-24 15:00:00 TS -19.0266 163.449 main 152 119 P________PP___ SH061950 -19.0150 163.450 -1 -19.0150 163.450 TC -19.0498 163.448 2 6 132
1950022S16161 1950 5 SP MM NOT_NAMED 1950-01-24 18:00:00 TS -19.2242 163.703 main 119 91 O________OP___ jtwc_sh SH061950 -19.2000 163.700 -1 -19.2000 163.700 TC -19.2726 163.708 2 6 132
1950022S16161 1950 5 SP MM NOT_NAMED 1950-01-24 21:00:00 TS -19.4564 163.960 main 78 56 P________PP___ SH061950 -19.4425 163.958 -1 -19.4425 163.958 TC -19.4842 163.964 2 7 135
1950022S16161 1950 5 SP MM NOT_NAMED 1950-01-25 00:00:00 TS -19.7000 164.200 main 56 39 O________OO___ jtwc_sh SH061950 -19.7000 164.200 -1 -19.7000 164.200 TC -19.7000 164.200 2 7 139
1950022S16161 1950 5 SP MM NOT_NAMED 1950-01-25 03:00:00 TS -19.9462 164.417 main 44 15 P________PP___ SH061950 -19.9500 164.415 -1 -19.9500 164.415 TC -19.9387 164.421 2 6 142
1950022S16161 1950 5 SP MM NOT_NAMED 1950-01-25 06:00:00 TS -20.1950 164.606 main 15 10 O________OP___ jtwc_sh SH061950 -20.2000 164.600 -1 -20.2000 164.600 TC -20.1850 164.617 2 6 146
1950022S16161 1950 5 SP MM NOT_NAMED 1950-01-25 09:00:00 TS -20.4462 164.775 main 15 0 P________PP___ SH061950 -20.4500 164.773 -1 -20.4500 164.773 TC -20.4387 164.780 2 6 151
1950022S16161 1950 5 SP MM NOT_NAMED 1950-01-25 12:00:00 TS -20.7000 164.900 main 0 0 O________OO___ jtwc_sh SH061950 -20.7000 164.900 -1 -20.7000 164.900 TC -20.7000 164.900 2 5 159
1950022S16161 1950 5 SP MM NOT_NAMED 1950-01-25 15:00:00 TS -20.9455 164.978 main 0 0 P________PP___ SH061950 -20.9425 164.973 -1 -20.9425 164.973 TC -20.9514 164.988 2 5 169
1950022S16161 1950 5 SP MM NOT_NAMED 1950-01-25 18:00:00 TS -21.2041 165.011 main 0 0 O________OP___ jtwc_sh SH061950 -21.2000 165.000 -1 -21.2000 165.000 TC -21.2123 165.032 2 5 175
1950022S16161 1950 5 SP MM NOT_NAMED 1950-01-25 21:00:00 TS -21.4874 165.022 main 11 11 P________PP___ SH061950 -21.4850 165.015 -1 -21.4850 165.015 TC -21.4921 165.035 2 6 182
1950022S16161 1950 5 SP MM NOT_NAMED 1950-01-26 00:00:00 TS -21.8000 165.000 main 38 38 O________OO___ jtwc_sh SH061950 -21.8000 165.000 -1 -21.8000 165.000 TC -21.8000 165.000 2 7 184
1950022S16161 1950 5 SP MM NOT_NAMED 1950-01-26 03:00:00 TS -22.1481 164.978 main 63 63 P________PP___ SH061950 -22.1350 164.972 -1 -22.1350 164.972 TC -22.1743 164.988 2 7 186
1950022S16161 1950 5 SP MM NOT_NAMED 1950-01-26 06:00:00 TS -22.5239 164.911 main 108 108 O________OP___ jtwc_sh SH061950 -22.5000 164.900 -1 -22.5000 164.900 TC -22.5718 164.935 2 8 192
1950022S16161 1950 5 SP MM NOT_NAMED 1950-01-26 09:00:00 TS -22.9294 164.801 main 151 151 P________PP___ SH061950 -22.9149 164.795 -1 -22.9149 164.795 TC -22.9584 164.813 2 8 200
1950022S16161 1950 5 SP MM NOT_NAMED 1950-01-26 12:00:00 TS -23.3000 164.600 main 199 199 O________OO___ jtwc_sh SH061950 -23.3000 164.600 -1 -23.3000 164.600 TC -23.3000 164.600 2 8 215
1950022S16161 1950 5 SP MM NOT_NAMED 1950-01-26 15:00:00 TS -23.5820 164.294 main 244 244 P________PP___ SH061950 -23.5874 164.302 -1 -23.5874 164.302 TC -23.5711 164.278 2 8 233
1950022S16161 1950 5 SP MM NOT_NAMED 1950-01-26 18:00:00 TS -23.7940 163.889 main 284 284 O________OP___ jtwc_sh SH061950 -23.8000 163.900 -1 -23.8000 163.900 TC -23.7819 163.868 2 9 245
1950022S16161 1950 5 SP MM NOT_NAMED 1950-01-26 21:00:00 TS -23.9592 163.413 main 328 328 P________PP___ SH061950 -23.9629 163.420 -1 -23.9629 163.420 TC -23.9517 163.399 2 10 251
1950022S16161 1950 5 SP MM NOT_NAMED 1950-01-27 00:00:00 TS -24.1000 162.900 main 364 O________OO___ jtwc_sh SH061950 -24.1000 162.900 -1 -24.1000 162.900 TC -24.1000 162.900 2 10 253

デジタル台風データ・検索

IBTrACS Databaseについて

本データベースは、米国NOAAが公開する1842年以降の世界の熱帯低気圧のベストトラックデータアーカイブInternational Best Track Archive for Climate Stewardship (IBTrACS)を、ウェブで閲覧しやすい形式に変換したものです。

最終更新日:2021-11-26